createdAt,value
2017-08-14T00:00:44.270Z,70.83
2017-08-14T00:03:12.618Z,71.20
2017-08-14T00:05:40.984Z,72.34
2017-08-14T00:08:09.893Z,72.61
2017-08-14T00:10:38.285Z,72.34
2017-08-14T00:13:06.635Z,72.55
2017-08-14T00:15:35.560Z,71.87
2017-08-14T00:18:04.145Z,71.45
2017-08-14T00:20:32.498Z,72.04
2017-08-14T00:23:01.390Z,72.03
2017-08-14T00:25:29.750Z,71.87
2017-08-14T00:27:58.863Z,71.70
2017-08-14T00:30:27.739Z,71.84
2017-08-14T00:32:56.082Z,71.98
2017-08-14T00:35:24.435Z,71.77
2017-08-14T00:37:53.327Z,71.82
2017-08-14T00:40:21.681Z,72.50
2017-08-14T00:42:50.037Z,72.90
2017-08-14T00:45:18.687Z,73.36
2017-08-14T00:47:47.054Z,74.51
2017-08-14T00:50:15.439Z,74.98
2017-08-14T00:52:44.399Z,74.62
2017-08-14T00:55:12.769Z,73.81
2017-08-14T00:57:41.672Z,73.30
2017-08-14T01:00:10.316Z,73.95
2017-08-14T01:02:38.695Z,73.82
2017-08-14T01:05:07.079Z,73.49
2017-08-14T01:07:35.753Z,73.31
2017-08-14T01:10:04.103Z,73.05
2017-08-14T01:12:32.469Z,72.88
2017-08-14T01:15:01.201Z,73.00
2017-08-14T01:17:29.569Z,72.69
2017-08-14T01:19:57.924Z,72.73
2017-08-14T01:22:26.625Z,72.73
2017-08-14T01:24:54.988Z,73.07
2017-08-14T01:27:23.330Z,73.03
2017-08-14T01:29:52.248Z,73.12
2017-08-14T01:32:20.594Z,73.05
2017-08-14T01:34:49.719Z,72.94
2017-08-14T01:37:18.638Z,72.55
2017-08-14T01:39:47.005Z,72.62
2017-08-14T01:42:15.356Z,72.67
2017-08-14T01:44:44.152Z,72.70
2017-08-14T01:47:12.524Z,72.89
2017-08-14T01:49:40.891Z,73.70
2017-08-14T01:52:09.560Z,73.92
2017-08-14T01:54:37.908Z,73.58
2017-08-14T01:57:06.257Z,73.56
2017-08-14T01:59:35.259Z,73.68
2017-08-14T02:02:03.724Z,73.14
2017-08-14T02:04:32.096Z,72.96
2017-08-14T02:07:00.802Z,72.53
2017-08-14T02:09:29.180Z,72.44
2017-08-14T02:11:57.541Z,72.21
2017-08-14T02:14:26.349Z,72.29
2017-08-14T02:16:54.708Z,72.45
2017-08-14T02:19:23.066Z,72.54
2017-08-14T02:21:51.757Z,72.83
2017-08-14T02:24:20.123Z,73.16
2017-08-14T02:26:48.516Z,73.65
2017-08-14T02:29:17.188Z,73.56
2017-08-14T02:31:45.540Z,72.95
2017-08-14T02:34:13.923Z,73.03
2017-08-14T02:36:42.582Z,72.95
2017-08-14T02:39:10.985Z,72.92
2017-08-14T02:41:39.338Z,72.47
2017-08-14T02:44:08.386Z,72.45
2017-08-14T02:46:36.761Z,72.92
2017-08-14T02:49:05.110Z,73.71
2017-08-14T02:51:33.754Z,73.58
2017-08-14T02:54:02.106Z,73.87
2017-08-14T02:56:30.690Z,73.82
2017-08-14T02:58:59.407Z,73.31
2017-08-14T03:01:27.856Z,73.00
2017-08-14T03:03:56.203Z,72.88
2017-08-14T03:06:25.108Z,73.01
2017-08-14T03:08:53.454Z,73.11
2017-08-14T03:11:21.811Z,72.93
2017-08-14T03:13:50.707Z,73.40
2017-08-14T03:16:19.047Z,73.86
2017-08-14T03:18:47.415Z,73.31
2017-08-14T03:21:16.094Z,73.83
2017-08-14T03:23:44.453Z,73.62
2017-08-14T03:26:12.799Z,73.92
2017-08-14T03:28:41.740Z,73.77
2017-08-14T03:31:10.099Z,73.29
2017-08-14T03:33:38.459Z,74.08
2017-08-14T03:36:07.100Z,73.92
2017-08-14T03:38:35.452Z,74.60
2017-08-14T03:41:03.813Z,74.12
2017-08-14T03:43:32.463Z,74.34
2017-08-14T03:46:00.834Z,75.06
2017-08-14T03:48:29.217Z,75.85
2017-08-14T03:50:58.376Z,75.75
2017-08-14T03:53:26.735Z,75.08
2017-08-14T03:55:55.074Z,74.73
2017-08-14T03:58:23.758Z,74.23
2017-08-14T04:00:52.141Z,74.96
2017-08-14T04:03:20.549Z,74.05
2017-08-14T04:05:49.402Z,74.06
2017-08-14T04:08:17.753Z,74.11
2017-08-14T04:10:46.125Z,74.04
2017-08-14T04:13:15.037Z,73.30
2017-08-14T04:15:43.419Z,73.30
2017-08-14T04:18:11.779Z,73.30
2017-08-14T04:20:40.600Z,72.54
2017-08-14T04:23:08.956Z,72.63
2017-08-14T04:25:37.331Z,73.11
2017-08-14T04:28:06.039Z,73.08
2017-08-14T04:30:34.379Z,73.42
2017-08-14T04:33:02.728Z,73.42
2017-08-14T04:35:31.647Z,73.21
2017-08-14T04:38:00.018Z,72.63
2017-08-14T04:40:28.356Z,71.96
2017-08-14T04:42:57.110Z,71.97
2017-08-14T04:45:25.459Z,72.38
2017-08-14T04:47:53.830Z,72.17
2017-08-14T04:50:22.558Z,72.03
2017-08-14T04:52:50.917Z,72.02
2017-08-14T04:55:19.268Z,72.35
2017-08-14T04:57:48.519Z,71.80
2017-08-14T05:00:16.878Z,71.16
2017-08-14T05:02:45.223Z,70.68
2017-08-14T05:05:14.639Z,70.87
2017-08-14T05:07:43.008Z,71.02
2017-08-14T05:10:11.399Z,71.11
2017-08-14T05:12:40.319Z,71.28
2017-08-14T05:15:08.692Z,70.57
2017-08-14T05:17:37.064Z,70.82
2017-08-14T05:20:06.184Z,71.10
2017-08-14T05:22:34.563Z,71.02
2017-08-14T05:25:02.920Z,70.83
2017-08-14T05:27:31.805Z,70.08
2017-08-14T05:30:00.177Z,69.14
2017-08-14T05:32:28.553Z,69.35
2017-08-14T05:34:57.352Z,69.26
2017-08-14T05:37:25.714Z,69.14
2017-08-14T05:39:54.060Z,68.81
2017-08-14T05:42:22.920Z,68.29
2017-08-14T05:44:51.259Z,68.38
2017-08-14T05:47:19.608Z,67.74
2017-08-14T05:49:48.287Z,68.05
2017-08-14T05:52:16.674Z,68.02
2017-08-14T05:54:45.026Z,67.49
2017-08-14T05:57:13.683Z,66.94
2017-08-14T05:59:42.050Z,66.51
2017-08-14T06:02:10.414Z,66.50
2017-08-14T06:04:39.212Z,66.74
2017-08-14T06:07:07.554Z,66.45
2017-08-14T06:09:35.922Z,65.38
2017-08-14T06:12:04.619Z,65.28
2017-08-14T06:14:32.984Z,64.83
2017-08-14T06:17:01.375Z,64.74
2017-08-14T06:19:30.020Z,64.24
2017-08-14T06:21:58.386Z,64.11
2017-08-14T06:24:26.741Z,63.81
2017-08-14T06:26:55.794Z,64.04
2017-08-14T06:29:24.166Z,64.08
2017-08-14T06:31:52.508Z,64.24
2017-08-14T06:34:21.284Z,63.42
2017-08-14T06:36:49.720Z,63.06
2017-08-14T06:39:18.040Z,63.83
2017-08-14T06:41:46.889Z,63.16
2017-08-14T06:44:15.242Z,62.72
2017-08-14T06:46:44.361Z,63.03
2017-08-14T06:49:13.120Z,62.83
2017-08-14T06:54:09.149Z,61.93
2017-08-14T06:56:37.960Z,61.95
2017-08-14T06:59:06.295Z,61.89
2017-08-14T07:01:34.646Z,62.28
2017-08-14T07:04:03.414Z,61.37
2017-08-14T07:06:31.746Z,60.35
2017-08-14T07:09:00.092Z,60.50
2017-08-14T07:11:28.930Z,58.96
2017-08-14T07:13:57.281Z,59.87
2017-08-14T07:16:25.638Z,59.44
2017-08-14T07:18:54.347Z,59.01
2017-08-14T07:21:22.718Z,59.28
2017-08-14T07:23:51.092Z,59.35
2017-08-14T07:26:20.301Z,58.83
2017-08-14T07:28:48.713Z,56.93
2017-08-14T07:31:17.860Z,56.39
2017-08-14T07:33:46.823Z,56.50
2017-08-14T07:36:15.200Z,56.77
2017-08-14T07:38:44.285Z,57.07
2017-08-14T07:41:13.928Z,56.80
2017-08-14T07:43:42.255Z,56.51
2017-08-14T07:46:10.598Z,56.26
2017-08-14T07:48:39.559Z,55.41
2017-08-14T07:51:07.917Z,54.15
2017-08-14T07:53:37.041Z,53.51
2017-08-14T07:56:05.899Z,54.13
2017-08-14T07:58:34.257Z,53.16
2017-08-14T08:01:02.631Z,52.75
2017-08-14T08:03:31.490Z,51.90
2017-08-14T08:05:59.845Z,51.49
2017-08-14T08:08:28.975Z,50.70
2017-08-14T08:10:57.649Z,50.97
2017-08-14T08:13:25.996Z,49.92
2017-08-14T08:15:54.338Z,49.31
2017-08-14T08:18:23.397Z,48.56
2017-08-14T08:20:51.756Z,48.81
2017-08-14T08:23:20.160Z,48.62
2017-08-14T08:25:48.862Z,48.04
2017-08-14T08:28:17.222Z,47.23
2017-08-14T08:30:45.622Z,47.03
2017-08-14T08:33:14.361Z,45.67
2017-08-14T08:35:43.485Z,45.25
2017-08-14T08:38:12.679Z,46.70
2017-08-14T08:40:41.575Z,47.24
2017-08-14T08:43:09.930Z,44.73
2017-08-14T08:45:39.022Z,45.40
2017-08-14T08:48:07.844Z,45.88
2017-08-14T08:50:36.199Z,44.84
2017-08-14T08:53:04.551Z,44.67
2017-08-14T08:55:33.230Z,44.35
2017-08-14T08:58:01.614Z,44.17
2017-08-14T09:00:29.974Z,43.23
2017-08-14T09:02:58.928Z,42.75
2017-08-14T09:05:27.307Z,42.64
2017-08-14T09:07:55.661Z,43.68
2017-08-14T09:10:24.380Z,41.84
2017-08-14T09:12:52.802Z,41.45
2017-08-14T09:15:21.179Z,41.41
2017-08-14T09:17:50.037Z,39.96
2017-08-14T09:20:18.384Z,38.98
2017-08-14T09:22:47.510Z,38.01
2017-08-14T09:25:16.341Z,36.57
2017-08-14T09:27:44.713Z,36.87
2017-08-14T09:30:13.057Z,36.24
2017-08-14T09:32:41.682Z,37.33
2017-08-14T09:35:10.030Z,35.62
2017-08-14T09:37:38.391Z,36.36
2017-08-14T09:40:07.075Z,36.28
2017-08-14T09:42:35.449Z,37.17
2017-08-14T09:45:03.792Z,37.53
2017-08-14T09:47:32.522Z,37.39
2017-08-14T09:50:00.890Z,36.88
2017-08-14T09:52:29.265Z,36.60
2017-08-14T09:54:58.812Z,36.15
2017-08-14T09:57:27.190Z,35.68
2017-08-14T09:59:55.538Z,35.43
2017-08-14T10:02:24.244Z,35.94
2017-08-14T10:04:52.599Z,36.07
2017-08-14T10:07:20.992Z,35.78
2017-08-14T10:09:49.983Z,35.19
2017-08-14T10:12:18.365Z,34.79
2017-08-14T10:14:46.780Z,34.49
2017-08-14T10:17:15.463Z,35.50
2017-08-14T10:19:43.860Z,33.10
2017-08-14T10:22:12.212Z,32.81
2017-08-14T10:24:41.077Z,32.09
2017-08-14T10:27:09.473Z,32.91
2017-08-14T10:29:37.851Z,33.10
2017-08-14T10:32:06.958Z,33.45
2017-08-14T10:34:35.322Z,32.78
2017-08-14T10:37:03.678Z,32.47
2017-08-14T10:39:32.337Z,32.80
2017-08-14T10:42:00.682Z,32.22
2017-08-14T10:44:29.035Z,31.44
2017-08-14T10:46:57.686Z,31.11
2017-08-14T10:49:26.017Z,30.70
2017-08-14T10:51:54.367Z,31.22
2017-08-14T10:54:23.311Z,31.98
2017-08-14T10:56:51.670Z,33.13
2017-08-14T10:59:20.074Z,32.42
2017-08-14T11:01:49.328Z,33.12
2017-08-14T11:04:17.711Z,33.32
2017-08-14T11:06:46.087Z,32.94
2017-08-14T11:09:14.975Z,31.91
2017-08-14T11:11:43.333Z,32.17
2017-08-14T11:14:12.451Z,32.58
2017-08-14T11:16:41.199Z,33.67
2017-08-14T11:19:09.566Z,33.75
2017-08-14T11:21:37.951Z,32.56
2017-08-14T11:24:06.686Z,32.29
2017-08-14T11:26:35.072Z,31.27
2017-08-14T11:29:03.527Z,30.86
2017-08-14T11:31:32.959Z,29.93
2017-08-14T11:34:01.352Z,30.75
2017-08-14T11:36:29.760Z,29.42
2017-08-14T11:38:58.779Z,29.51
2017-08-14T11:41:27.161Z,28.83
2017-08-14T11:43:55.536Z,29.53
2017-08-14T11:46:24.460Z,30.72
2017-08-14T11:48:52.824Z,30.28
2017-08-14T11:51:21.183Z,30.16
2017-08-14T11:53:50.143Z,30.80
2017-08-14T11:56:18.473Z,31.04
2017-08-14T11:58:46.848Z,31.27
2017-08-14T12:01:15.649Z,31.37
2017-08-14T12:03:44.038Z,31.12
2017-08-14T12:06:12.509Z,31.99
2017-08-14T12:08:41.196Z,30.53
2017-08-14T12:11:09.562Z,30.42
2017-08-14T12:13:38.774Z,29.62
2017-08-14T12:16:07.441Z,29.32
2017-08-14T12:18:35.780Z,29.30
2017-08-14T12:21:04.176Z,31.12
2017-08-14T12:23:33.094Z,31.05
2017-08-14T12:26:01.453Z,30.78
2017-08-14T12:28:29.825Z,30.33
2017-08-14T12:30:58.500Z,29.90
2017-08-14T12:33:26.872Z,29.73
2017-08-14T12:35:55.235Z,30.17
2017-08-14T12:38:24.034Z,29.63
2017-08-14T12:40:52.402Z,30.19
2017-08-14T12:43:20.801Z,31.23
2017-08-14T12:45:49.663Z,30.74
2017-08-14T12:48:18.021Z,32.19
2017-08-14T12:50:46.362Z,31.84
2017-08-14T12:53:15.100Z,31.49
2017-08-14T12:55:43.456Z,30.93
2017-08-14T12:58:12.553Z,29.79
2017-08-14T13:00:42.010Z,28.90
2017-08-14T13:03:10.394Z,28.55
2017-08-14T13:05:38.787Z,29.43
2017-08-14T13:08:07.626Z,30.95
2017-08-14T13:10:35.987Z,31.28
2017-08-14T13:13:04.373Z,31.09
2017-08-14T13:15:33.011Z,31.20
2017-08-14T13:18:01.375Z,31.47
2017-08-14T13:20:29.726Z,32.13
2017-08-14T13:23:01.446Z,32.11
2017-08-14T13:25:29.790Z,31.89
2017-08-14T13:27:58.177Z,32.13
2017-08-14T13:30:26.967Z,31.12
2017-08-14T13:32:55.338Z,31.38
2017-08-14T13:35:23.712Z,31.66
2017-08-14T13:37:52.478Z,32.96
2017-08-14T13:40:20.843Z,32.69
2017-08-14T13:42:49.222Z,33.15
2017-08-14T13:45:17.918Z,34.17
2017-08-14T13:47:46.266Z,33.77
2017-08-14T13:50:14.621Z,33.71
2017-08-14T13:52:43.762Z,33.96
2017-08-14T13:55:12.122Z,34.04
2017-08-14T13:57:40.472Z,33.83
2017-08-14T14:00:09.235Z,33.32
2017-08-14T14:02:37.603Z,32.61
2017-08-14T14:05:06.016Z,31.80
2017-08-14T14:07:34.798Z,31.26
2017-08-14T14:10:03.232Z,31.16
2017-08-14T14:12:31.623Z,31.02
2017-08-14T14:15:00.917Z,31.49
2017-08-14T14:17:29.301Z,31.61
2017-08-14T14:19:57.682Z,31.95
2017-08-14T14:22:26.412Z,32.21
2017-08-14T14:24:54.759Z,32.04
2017-08-14T14:27:23.122Z,31.90
2017-08-14T14:29:51.824Z,32.34
2017-08-14T14:32:20.167Z,32.03
2017-08-14T14:34:49.316Z,32.10
2017-08-14T14:37:18.288Z,31.61
2017-08-14T14:39:46.635Z,32.59
2017-08-14T14:42:15.009Z,33.30
2017-08-14T14:44:43.938Z,33.87
2017-08-14T14:47:12.284Z,35.33
2017-08-14T14:49:40.661Z,35.73
2017-08-14T14:52:09.388Z,35.80
2017-08-14T14:54:37.736Z,35.52
2017-08-14T14:57:06.843Z,34.81
2017-08-14T14:59:35.616Z,34.27
2017-08-14T15:02:03.956Z,33.41
2017-08-14T15:04:32.336Z,33.69
2017-08-14T15:07:00.976Z,33.46
2017-08-14T15:09:29.334Z,34.50
2017-08-14T15:11:57.682Z,35.92
2017-08-14T15:14:26.553Z,36.08
2017-08-14T15:16:54.936Z,35.33
2017-08-14T15:19:23.325Z,35.17
2017-08-14T15:21:52.267Z,36.56
2017-08-14T15:24:21.433Z,35.94
2017-08-14T15:26:49.832Z,35.92
2017-08-14T15:29:18.521Z,35.63
2017-08-14T15:31:46.908Z,36.19
2017-08-14T15:34:15.272Z,36.52
2017-08-14T15:36:43.938Z,36.39
2017-08-14T15:39:12.309Z,36.22
2017-08-14T15:41:40.699Z,35.83
2017-08-14T15:44:09.557Z,37.07
2017-08-14T15:46:37.937Z,38.45
2017-08-14T15:49:06.325Z,38.84
2017-08-14T15:51:34.963Z,37.30
2017-08-14T15:54:03.306Z,35.41
2017-08-14T15:56:31.684Z,35.83
2017-08-14T15:59:00.473Z,37.40
2017-08-14T16:01:28.843Z,37.69
2017-08-14T16:03:57.166Z,37.56
2017-08-14T16:06:26.016Z,37.27
2017-08-14T16:08:54.363Z,37.53
2017-08-14T16:11:22.701Z,38.64
2017-08-14T16:13:51.323Z,38.42
2017-08-14T16:16:19.676Z,38.52
2017-08-14T16:18:48.808Z,38.37
2017-08-14T16:21:17.573Z,37.99
2017-08-14T16:23:45.927Z,39.16
2017-08-14T16:26:14.277Z,40.55
2017-08-14T16:28:43.364Z,40.90
2017-08-14T16:31:11.753Z,40.28
2017-08-14T16:33:40.147Z,40.87
2017-08-14T16:36:08.938Z,40.87
2017-08-14T16:38:37.338Z,40.53
2017-08-14T16:41:05.707Z,41.34
2017-08-14T16:43:34.396Z,40.65
2017-08-14T16:46:02.830Z,40.42
2017-08-14T16:48:31.207Z,41.65
2017-08-14T16:51:00.335Z,42.18
2017-08-14T16:53:28.735Z,42.85
2017-08-14T16:55:57.096Z,43.19
2017-08-14T16:58:25.913Z,43.58
2017-08-14T17:00:54.291Z,43.60
2017-08-14T17:03:23.067Z,43.13
2017-08-14T17:05:51.802Z,43.61
2017-08-14T17:08:20.157Z,43.50
2017-08-14T17:10:48.497Z,43.69
2017-08-14T17:13:17.487Z,43.57
2017-08-14T17:15:45.931Z,43.57
2017-08-14T17:18:14.330Z,43.20
2017-08-14T17:20:43.015Z,43.49
2017-08-14T17:23:11.394Z,44.18
2017-08-14T17:25:39.853Z,44.79
2017-08-14T17:28:08.654Z,44.85
2017-08-14T17:30:37.038Z,44.45
2017-08-14T17:33:05.417Z,44.90
2017-08-14T17:35:34.315Z,44.92
2017-08-14T17:38:02.686Z,44.70
2017-08-14T17:40:31.045Z,44.92
2017-08-14T17:42:59.952Z,44.70
2017-08-14T17:45:28.337Z,44.81
2017-08-14T17:47:56.727Z,45.15
2017-08-14T17:50:25.738Z,45.94
2017-08-14T17:52:54.110Z,45.93
2017-08-14T17:55:22.507Z,46.52
2017-08-14T17:57:51.908Z,46.35
2017-08-14T18:00:21.079Z,45.96
2017-08-14T18:02:49.447Z,46.23
2017-08-14T18:05:18.364Z,46.07
2017-08-14T18:07:46.805Z,46.37
2017-08-14T18:10:15.157Z,46.53
2017-08-14T18:12:44.007Z,47.81
2017-08-14T18:15:12.429Z,48.49
2017-08-14T18:17:40.889Z,48.66
2017-08-14T18:20:09.857Z,48.84
2017-08-14T18:22:38.223Z,48.80
2017-08-14T18:25:06.629Z,48.95
2017-08-14T18:27:35.492Z,49.62
2017-08-14T18:30:03.861Z,49.73
2017-08-14T18:32:32.233Z,49.68
2017-08-14T18:35:00.952Z,49.79
2017-08-14T18:37:29.414Z,49.52
2017-08-14T18:39:58.033Z,49.70
2017-08-14T18:42:26.933Z,50.29
2017-08-14T18:44:55.335Z,50.60
2017-08-14T18:47:24.503Z,51.02
2017-08-14T18:49:53.454Z,51.55
2017-08-14T18:52:21.904Z,51.79
2017-08-14T18:54:50.257Z,52.10
2017-08-14T18:57:19.118Z,52.06
2017-08-14T18:59:47.485Z,52.42
2017-08-14T19:02:16.517Z,52.55
2017-08-14T19:04:45.394Z,52.40
2017-08-14T19:07:13.864Z,52.79
2017-08-14T19:09:43.601Z,52.33
2017-08-14T19:12:10.993Z,52.47
2017-08-14T19:14:39.359Z,52.60
2017-08-14T19:17:07.709Z,52.42
2017-08-14T19:19:36.429Z,53.04
2017-08-14T19:22:04.794Z,52.53
2017-08-14T19:24:33.210Z,52.98
2017-08-14T19:27:02.373Z,53.31
2017-08-14T19:29:30.792Z,53.85
2017-08-14T19:31:59.170Z,53.63
2017-08-14T19:34:28.809Z,53.57
2017-08-14T19:36:57.176Z,53.84
2017-08-14T19:39:25.545Z,53.65
2017-08-14T19:41:54.482Z,53.57
2017-08-14T19:44:22.850Z,54.36
2017-08-14T19:46:51.241Z,54.93
2017-08-14T19:49:20.362Z,55.27
2017-08-14T19:51:48.766Z,55.71
2017-08-14T19:54:17.487Z,55.76
2017-08-14T19:56:46.329Z,56.87
2017-08-14T19:59:14.704Z,56.94
2017-08-14T20:01:43.077Z,56.17
2017-08-14T20:04:12.040Z,56.09
2017-08-14T20:06:40.464Z,55.63
2017-08-14T20:09:08.839Z,55.72
2017-08-14T20:11:38.483Z,55.53
2017-08-14T20:14:06.844Z,55.97
2017-08-14T20:16:35.991Z,56.00
2017-08-14T20:19:04.689Z,56.15
2017-08-14T20:21:33.075Z,56.19
2017-08-14T20:24:01.470Z,56.93
2017-08-14T20:26:30.139Z,56.28
2017-08-14T20:28:58.503Z,56.90
2017-08-14T20:31:26.849Z,57.33
2017-08-14T20:33:55.844Z,57.52
2017-08-14T20:36:24.199Z,57.15
2017-08-14T20:38:53.646Z,57.49
2017-08-14T20:41:22.529Z,57.56
2017-08-14T20:43:50.898Z,57.84
2017-08-14T20:46:19.277Z,57.49
2017-08-14T20:48:48.029Z,58.61
2017-08-14T20:51:16.410Z,58.31
2017-08-14T20:53:44.785Z,58.49
2017-08-14T20:56:13.606Z,58.02
2017-08-14T20:58:41.990Z,58.83
2017-08-14T21:01:10.399Z,58.88
2017-08-14T21:03:39.314Z,58.92
2017-08-14T21:06:07.696Z,59.01
2017-08-14T21:08:36.626Z,59.15
2017-08-14T21:11:05.279Z,58.89
2017-08-14T21:13:33.631Z,58.60
2017-08-14T21:16:02.003Z,58.38
2017-08-14T21:18:31.207Z,58.21
2017-08-14T21:20:59.576Z,57.90
2017-08-14T21:23:27.953Z,58.03
2017-08-14T21:25:56.830Z,58.47
2017-08-14T21:28:25.233Z,58.64
2017-08-14T21:30:53.622Z,58.58
2017-08-14T21:33:22.296Z,58.81
2017-08-14T21:35:50.656Z,58.12
2017-08-14T21:38:19.020Z,58.57
2017-08-14T21:40:47.957Z,58.73
2017-08-14T21:43:16.316Z,58.28
2017-08-14T21:45:44.694Z,58.04
2017-08-14T21:48:13.396Z,58.43
2017-08-14T21:50:41.775Z,58.23
2017-08-14T21:53:10.213Z,58.16
2017-08-14T21:55:39.942Z,58.50
2017-08-14T21:58:08.305Z,58.90
2017-08-14T22:00:36.642Z,58.22
2017-08-14T22:03:05.480Z,57.86
2017-08-14T22:05:33.955Z,57.90
2017-08-14T22:08:02.352Z,57.71
2017-08-14T22:10:31.566Z,57.69
2017-08-14T22:13:00.015Z,58.58
2017-08-14T22:15:28.554Z,58.23
2017-08-14T22:17:58.308Z,58.17
2017-08-14T22:20:26.691Z,58.14
2017-08-14T22:22:55.026Z,58.71
2017-08-14T22:25:23.717Z,58.47
2017-08-14T22:27:52.757Z,58.11
2017-08-14T22:30:23.548Z,58.03
2017-08-14T22:32:52.843Z,58.46
2017-08-14T22:35:21.744Z,58.94
2017-08-14T22:37:50.609Z,59.19
2017-08-14T22:40:20.588Z,59.85
2017-08-14T22:42:49.241Z,59.46
2017-08-14T22:45:20.401Z,59.02
2017-08-14T22:47:50.147Z,59.54
2017-08-14T22:50:18.521Z,59.72
2017-08-14T22:52:46.875Z,59.84
2017-08-14T22:55:16.303Z,60.23
2017-08-14T22:57:44.667Z,60.12
2017-08-14T23:00:13.807Z,60.02
2017-08-14T23:02:42.452Z,59.10
2017-08-14T23:05:10.840Z,58.85
2017-08-14T23:07:39.258Z,59.19
2017-08-14T23:10:08.223Z,59.75
2017-08-14T23:12:36.598Z,59.53
2017-08-14T23:15:04.961Z,59.30
2017-08-14T23:17:33.683Z,59.22
2017-08-14T23:20:02.054Z,59.87
2017-08-14T23:22:30.480Z,59.55
2017-08-14T23:24:59.339Z,59.88
2017-08-14T23:27:27.696Z,59.85
2017-08-14T23:29:56.071Z,59.36
2017-08-14T23:32:25.228Z,59.46
2017-08-14T23:34:53.598Z,59.05
2017-08-14T23:37:21.985Z,58.65
2017-08-14T23:39:51.680Z,58.47
2017-08-14T23:42:20.094Z,58.74
2017-08-14T23:44:48.491Z,58.54
2017-08-14T23:47:17.727Z,58.47
2017-08-14T23:49:46.097Z,58.73
2017-08-14T23:52:14.452Z,59.42
2017-08-14T23:54:43.359Z,59.45
2017-08-14T23:57:11.777Z,59.07
2017-08-14T23:59:40.154Z,58.87
